createdAt,value
2023-04-15T00:00:49.089Z,5.38
2023-04-15T00:03:57.274Z,6.97
2023-04-15T00:06:59.135Z,5.57
2023-04-15T00:10:02.354Z,4.85
2023-04-15T00:13:06.781Z,4.20
2023-04-15T00:16:11.585Z,5.85
2023-04-15T00:19:25.510Z,5.60
2023-04-15T00:22:29.974Z,5.13
2023-04-15T00:25:31.663Z,4.57
2023-04-15T00:28:35.967Z,4.25
2023-04-15T00:31:38.414Z,4.15
2023-04-15T00:34:39.963Z,3.95
2023-04-15T00:37:48.561Z,4.38
2023-04-15T00:40:50.243Z,3.45
2023-04-15T00:43:52.162Z,4.03
2023-04-15T00:46:54.081Z,4.78
2023-04-15T00:49:56.004Z,5.68
2023-04-15T00:52:58.256Z,4.35
2023-04-15T00:55:59.899Z,4.05
2023-04-15T00:59:09.265Z,3.90
2023-04-15T01:02:11.231Z,4.80
2023-04-15T01:05:14.989Z,4.00
2023-04-15T01:08:31.526Z,4.47
2023-04-15T01:14:41.369Z,4.45
2023-04-15T01:17:43.667Z,5.22
2023-04-15T01:20:48.343Z,4.90
2023-04-15T01:23:52.780Z,5.88
2023-04-15T01:27:23.464Z,4.80
2023-04-15T01:30:27.165Z,4.13
2023-04-15T01:33:39.702Z,3.58
2023-04-15T01:36:43.677Z,5.63
2023-04-15T01:39:45.494Z,4.43
2023-04-15T01:42:47.284Z,3.90
2023-04-15T01:45:50.584Z,4.80
2023-04-15T01:48:52.777Z,4.07
2023-04-15T01:51:57.336Z,3.65
2023-04-15T01:54:58.949Z,4.68
2023-04-15T01:58:01.293Z,3.50
2023-04-15T02:01:04.681Z,4.20
2023-04-15T02:04:07.333Z,4.30
2023-04-15T02:07:08.881Z,4.15
2023-04-15T02:10:19.781Z,4.68
2023-04-15T02:13:29.119Z,6.07
2023-04-15T02:16:38.085Z,5.22
2023-04-15T02:19:40.575Z,3.92
2023-04-15T02:22:48.741Z,5.30
2023-04-15T02:25:53.296Z,4.68
2023-04-15T02:28:56.268Z,4.57
2023-04-15T02:32:00.797Z,4.30
2023-04-15T02:35:04.044Z,4.30
2023-04-15T02:38:06.466Z,4.45
2023-04-15T02:41:09.442Z,3.95
2023-04-15T02:44:13.094Z,3.83
2023-04-15T02:47:15.976Z,7.47
2023-04-15T02:50:18.005Z,5.18
2023-04-15T02:53:20.105Z,3.75
2023-04-15T03:02:50.861Z,4.20
2023-04-15T03:05:52.654Z,4.47
2023-04-15T03:12:19.233Z,3.33
2023-04-15T03:15:21.554Z,3.70
2023-04-15T03:18:26.569Z,3.77
2023-04-15T03:21:31.486Z,4.63
2023-04-15T03:24:39.200Z,3.72
2023-04-15T03:27:41.641Z,4.00
2023-04-15T03:30:59.984Z,3.97
2023-04-15T03:34:02.538Z,4.22
2023-04-15T03:40:21.684Z,3.65
2023-04-15T03:43:26.448Z,4.63
2023-04-15T03:46:28.112Z,4.35
2023-04-15T03:49:38.187Z,3.63
2023-04-15T03:52:42.056Z,4.43
2023-04-15T03:55:54.248Z,5.40
2023-04-15T03:58:55.935Z,5.32
2023-04-15T04:01:57.645Z,5.50
2023-04-15T04:04:59.204Z,4.25
2023-04-15T04:08:00.704Z,4.68
2023-04-15T04:11:04.594Z,4.00
2023-04-15T04:14:08.202Z,4.57
2023-04-15T04:17:09.737Z,4.53
2023-04-15T04:20:17.313Z,5.82
2023-04-15T04:23:21.701Z,5.05
2023-04-15T04:29:49.911Z,5.55
2023-04-15T04:32:57.548Z,4.30
2023-04-15T04:35:59.087Z,5.05
2023-04-15T04:39:01.508Z,5.30
2023-04-15T04:42:04.546Z,5.13
2023-04-15T04:45:09.437Z,4.35
2023-04-15T04:48:11.523Z,5.20
2023-04-15T04:51:13.096Z,5.95
2023-04-15T04:54:16.195Z,4.43
2023-04-15T04:57:17.745Z,4.82
2023-04-15T05:00:19.351Z,4.55
2023-04-15T05:03:22.132Z,4.32
2023-04-15T05:09:42.433Z,4.10
2023-04-15T05:12:45.649Z,3.97
2023-04-15T05:15:47.339Z,4.30
2023-04-15T05:18:50.953Z,5.55
2023-04-15T05:21:55.574Z,5.70
2023-04-15T05:24:57.096Z,4.13
2023-04-15T05:27:58.665Z,5.85
2023-04-15T05:31:00.718Z,8.23
2023-04-15T05:34:02.331Z,7.20
2023-04-15T05:37:04.622Z,7.28
2023-04-15T05:40:06.643Z,7.10
2023-04-15T05:43:09.791Z,6.43
2023-04-15T05:46:11.425Z,7.95
2023-04-15T05:49:14.747Z,7.18
2023-04-15T05:52:22.083Z,8.23
2023-04-15T05:55:23.700Z,9.02
2023-04-15T05:58:25.280Z,7.15
2023-04-15T06:01:35.803Z,11.85
2023-04-15T06:04:56.268Z,9.20
2023-04-15T06:07:57.799Z,8.05
2023-04-15T06:11:01.640Z,7.22
2023-04-15T06:14:03.291Z,8.52
2023-04-15T06:20:20.408Z,7.63
2023-04-15T06:23:22.042Z,10.07
2023-04-15T06:26:23.664Z,8.27
2023-04-15T06:29:25.346Z,7.80
2023-04-15T06:32:27.022Z,6.78
2023-04-15T06:35:28.727Z,6.75
2023-04-15T06:38:33.833Z,9.52
2023-04-15T06:41:36.344Z,8.23
2023-04-15T06:45:04.373Z,7.43
2023-04-15T06:48:07.080Z,6.70
2023-04-15T06:51:08.657Z,9.00
2023-04-15T06:54:10.261Z,6.03
2023-04-15T06:57:11.860Z,5.63
2023-04-15T07:00:13.905Z,6.57
2023-04-15T07:03:15.717Z,4.80
2023-04-15T07:06:17.263Z,6.65
2023-04-15T07:09:18.769Z,6.57
2023-04-15T07:12:20.844Z,6.00
2023-04-15T07:15:23.563Z,6.00
2023-04-15T07:18:25.605Z,5.90
2023-04-15T07:24:50.245Z,5.20
2023-04-15T07:28:02.471Z,5.45
2023-04-15T07:31:08.063Z,5.25
2023-04-15T07:34:12.125Z,5.75
2023-04-15T07:37:13.987Z,6.72
2023-04-15T07:40:18.632Z,7.30
2023-04-15T07:43:21.307Z,5.68
2023-04-15T07:46:31.403Z,6.32
2023-04-15T07:49:32.953Z,5.43
2023-04-15T07:52:39.118Z,5.30
2023-04-15T07:58:56.164Z,5.45
2023-04-15T08:02:01.030Z,5.85
2023-04-15T08:05:04.383Z,6.63
2023-04-15T08:08:08.451Z,5.57
2023-04-15T08:11:12.137Z,6.60
2023-04-15T08:14:16.068Z,4.78
2023-04-15T08:17:17.763Z,5.32
2023-04-15T08:20:19.887Z,5.40
2023-04-15T08:23:21.488Z,5.00
2023-04-15T08:26:23.154Z,5.95
2023-04-15T08:29:24.705Z,6.55
2023-04-15T08:32:27.207Z,8.60
2023-04-15T08:35:31.977Z,5.72
2023-04-15T08:38:34.297Z,5.55
2023-04-15T08:42:11.962Z,7.05
2023-04-15T08:45:13.989Z,7.70
2023-04-15T08:48:22.793Z,6.85
2023-04-15T08:51:27.227Z,6.45
2023-04-15T08:54:29.268Z,6.43
2023-04-15T08:57:32.181Z,5.93
2023-04-15T09:00:37.678Z,6.40
2023-04-15T09:03:40.808Z,7.60
2023-04-15T09:06:44.994Z,7.68
2023-04-15T09:09:48.646Z,6.28
2023-04-15T09:12:50.321Z,8.13
2023-04-15T09:15:53.609Z,7.47
2023-04-15T09:19:27.748Z,7.07
2023-04-15T09:22:33.308Z,7.78
2023-04-15T09:25:50.565Z,6.47
2023-04-15T09:28:54.368Z,6.07
2023-04-15T09:31:56.204Z,5.97
2023-04-15T09:34:58.062Z,5.03
2023-04-15T09:38:12.833Z,6.90
2023-04-15T09:41:20.733Z,7.18
2023-04-15T09:44:27.122Z,7.82
2023-04-15T09:47:34.817Z,7.70
2023-04-15T09:50:41.236Z,7.00
2023-04-15T09:53:42.787Z,6.63
2023-04-15T09:56:50.380Z,6.32
2023-04-15T09:59:52.074Z,6.00
2023-04-15T10:03:19.093Z,4.93
2023-04-15T10:06:23.632Z,5.47
2023-04-15T10:09:25.167Z,5.28
2023-04-15T10:12:27.668Z,4.45
2023-04-15T10:15:34.034Z,5.25
2023-04-15T10:18:42.988Z,5.78
2023-04-15T10:21:50.253Z,5.38
2023-04-15T10:24:52.989Z,4.88
2023-04-15T10:27:56.496Z,4.93
2023-04-15T10:30:59.302Z,4.63
2023-04-15T10:34:13.724Z,5.32
2023-04-15T10:37:21.742Z,4.90
2023-04-15T10:40:37.748Z,5.70
2023-04-15T10:43:41.673Z,4.68
2023-04-15T10:46:45.370Z,4.00
2023-04-15T10:53:28.324Z,5.22
2023-04-15T10:56:39.492Z,4.63
2023-04-15T11:03:43.351Z,5.53
2023-04-15T11:06:45.791Z,5.57
2023-04-15T11:09:48.079Z,4.20
2023-04-15T11:13:11.505Z,4.63
2023-04-15T11:16:13.573Z,5.55
2023-04-15T11:22:30.708Z,5.07
2023-04-15T11:25:37.665Z,4.50
2023-04-15T11:28:41.839Z,5.28
2023-04-15T11:32:00.765Z,4.93
2023-04-15T11:35:02.368Z,6.22
2023-04-15T11:38:12.369Z,4.18
2023-04-15T11:41:13.930Z,4.55
2023-04-15T11:44:19.144Z,5.22
2023-04-15T11:47:30.638Z,5.17
2023-04-15T11:50:42.446Z,4.15
2023-04-15T11:53:57.813Z,4.07
2023-04-15T11:57:00.153Z,4.65
2023-04-15T12:00:01.870Z,3.50
2023-04-15T12:03:23.721Z,4.68
2023-04-15T12:06:27.868Z,3.80
2023-04-15T12:09:36.737Z,3.58
2023-04-15T12:12:41.038Z,3.97
2023-04-15T12:15:43.698Z,5.40
2023-04-15T12:18:56.121Z,4.50
2023-04-15T12:22:10.356Z,5.13
2023-04-15T12:25:12.246Z,4.30
2023-04-15T12:28:20.878Z,3.45
2023-04-15T12:31:23.832Z,4.20
2023-04-15T12:34:51.064Z,4.70
2023-04-15T12:38:18.047Z,5.03
2023-04-15T12:41:20.661Z,3.30
2023-04-15T12:44:34.465Z,4.97
2023-04-15T12:47:39.113Z,5.25
2023-04-15T12:50:44.250Z,3.42
2023-04-15T12:53:45.788Z,3.63
2023-04-15T12:56:48.965Z,4.90
2023-04-15T12:59:53.532Z,3.75
2023-04-15T13:02:55.123Z,4.72
2023-04-15T13:06:08.738Z,3.97
2023-04-15T13:09:10.813Z,3.97
2023-04-15T13:15:32.060Z,3.63
2023-04-15T13:22:08.799Z,4.28
2023-04-15T13:25:32.452Z,4.05
2023-04-15T13:28:34.566Z,3.90
2023-04-15T13:31:49.300Z,3.97
2023-04-15T13:35:16.310Z,4.45
2023-04-15T13:38:17.869Z,5.28
2023-04-15T13:41:21.135Z,5.18
2023-04-15T13:44:28.637Z,5.45
2023-04-15T13:47:32.707Z,4.95
2023-04-15T13:50:34.472Z,4.80
2023-04-15T13:53:51.567Z,5.10
2023-04-15T13:56:54.634Z,5.38
2023-04-15T13:59:56.345Z,6.03
2023-04-15T14:03:00.990Z,5.05
2023-04-15T14:06:02.690Z,5.95
2023-04-15T14:09:06.560Z,5.20
2023-04-15T14:12:15.473Z,3.90
2023-04-15T14:15:21.100Z,5.53
2023-04-15T14:18:26.584Z,5.72
2023-04-15T14:21:28.835Z,5.07
2023-04-15T14:24:30.431Z,5.25
2023-04-15T14:27:46.495Z,6.75
2023-04-15T14:30:48.088Z,5.72
2023-04-15T14:33:51.995Z,5.25
2023-04-15T14:36:56.454Z,5.60
2023-04-15T14:40:00.316Z,5.70
2023-04-15T14:43:07.956Z,6.45
2023-04-15T14:46:14.435Z,7.65
2023-04-15T14:52:27.353Z,5.25
2023-04-15T14:55:37.931Z,5.45
2023-04-15T14:58:39.458Z,5.15
2023-04-15T15:01:41.189Z,5.95
2023-04-15T15:08:01.480Z,6.43
2023-04-15T15:11:03.114Z,5.43
2023-04-15T15:17:20.262Z,5.10
2023-04-15T15:20:49.810Z,5.38
2023-04-15T15:24:00.699Z,5.03
2023-04-15T15:27:02.950Z,6.13
2023-04-15T15:30:06.492Z,5.05
2023-04-15T15:33:10.668Z,5.55
2023-04-15T15:36:16.150Z,6.22
2023-04-15T15:39:24.949Z,6.47
2023-04-15T15:42:26.847Z,6.45
2023-04-15T15:45:35.994Z,5.47
2023-04-15T15:51:59.060Z,4.80
2023-04-15T15:55:03.904Z,7.35
2023-04-15T15:58:05.663Z,5.80
2023-04-15T16:01:10.467Z,5.45
2023-04-15T16:04:12.194Z,5.72
2023-04-15T16:07:15.420Z,5.03
2023-04-15T16:10:17.545Z,4.97
2023-04-15T16:13:19.124Z,5.43
2023-04-15T16:16:22.073Z,5.82
2023-04-15T16:19:30.792Z,5.60
2023-04-15T16:22:34.241Z,6.65
2023-04-15T16:25:35.770Z,6.40
2023-04-15T16:28:37.398Z,5.95
2023-04-15T16:31:40.035Z,4.68
2023-04-15T16:34:41.617Z,5.63
2023-04-15T16:37:58.285Z,6.50
2023-04-15T16:44:03.760Z,6.72
2023-04-15T16:47:05.880Z,7.03
2023-04-15T16:50:18.340Z,6.18
2023-04-15T16:53:19.953Z,7.03
2023-04-15T16:56:22.139Z,6.55
2023-04-15T16:59:26.167Z,5.95
2023-04-15T17:02:31.344Z,5.50
2023-04-15T17:05:33.825Z,4.80
2023-04-15T17:08:41.304Z,6.20
2023-04-15T17:11:44.512Z,5.13
2023-04-15T17:14:46.168Z,5.30
2023-04-15T17:17:51.796Z,5.28
2023-04-15T17:21:12.265Z,5.55
2023-04-15T17:24:15.778Z,5.03
2023-04-15T17:27:19.696Z,5.15
2023-04-15T17:30:21.716Z,5.65
2023-04-15T17:34:00.534Z,4.40
2023-04-15T17:36:44.901Z,5.93
2023-04-15T17:39:49.281Z,5.30
2023-04-15T17:42:51.746Z,4.72
2023-04-15T17:45:59.545Z,4.38
2023-04-15T17:49:03.503Z,5.43
2023-04-15T17:52:05.385Z,4.28
2023-04-15T17:55:08.171Z,5.68
2023-04-15T17:58:09.865Z,4.60
2023-04-15T18:01:13.671Z,4.50
2023-04-15T18:04:15.812Z,4.72
2023-04-15T18:07:17.695Z,4.60
2023-04-15T18:10:20.668Z,3.83
2023-04-15T18:13:24.710Z,4.65
2023-04-15T18:16:31.936Z,6.95
2023-04-15T18:19:33.766Z,4.70
2023-04-15T18:22:35.619Z,3.20
2023-04-15T18:25:38.326Z,3.38
2023-04-15T18:28:39.960Z,3.20
2023-04-15T18:31:42.083Z,3.30
2023-04-15T18:34:46.472Z,3.78
2023-04-15T18:41:05.479Z,4.13
2023-04-15T18:44:14.578Z,5.50
2023-04-15T18:47:16.145Z,3.63
2023-04-15T18:50:19.972Z,3.35
2023-04-15T18:53:22.640Z,3.58
2023-04-15T18:56:26.399Z,4.82
2023-04-15T18:59:30.195Z,4.53
2023-04-15T19:02:32.888Z,4.10
2023-04-15T19:05:35.155Z,4.45
2023-04-15T19:08:36.700Z,4.80
2023-04-15T19:11:39.057Z,5.47
2023-04-15T19:14:41.353Z,4.38
2023-04-15T19:17:48.847Z,3.70
2023-04-15T19:20:52.203Z,3.72
2023-04-15T19:23:58.718Z,4.10
2023-04-15T19:30:03.335Z,4.50
2023-04-15T19:33:04.997Z,4.18
2023-04-15T19:36:07.554Z,3.90
2023-04-15T19:39:09.821Z,4.07
2023-04-15T19:42:11.354Z,3.65
2023-04-15T19:45:14.910Z,3.78
2023-04-15T19:48:16.875Z,4.15
2023-04-15T19:51:18.514Z,3.78
2023-04-15T19:54:20.113Z,5.28
2023-04-15T19:57:21.606Z,10.25
2023-04-15T20:00:23.230Z,7.18
2023-04-15T20:06:40.564Z,8.75
2023-04-15T20:09:46.361Z,5.57
2023-04-15T20:12:55.131Z,5.57
2023-04-15T20:15:56.928Z,4.40
2023-04-15T20:19:07.399Z,4.38
2023-04-15T20:22:10.842Z,4.55
2023-04-15T20:25:19.131Z,5.50
2023-04-15T20:28:29.307Z,4.55
2023-04-15T20:31:30.904Z,4.47
2023-04-15T20:34:32.684Z,4.82
2023-04-15T20:37:34.754Z,4.57
2023-04-15T20:40:36.505Z,6.18
2023-04-15T20:43:38.050Z,5.13
2023-04-15T20:46:39.606Z,5.82
2023-04-15T20:49:47.491Z,4.90
2023-04-15T20:52:54.253Z,6.65
2023-04-15T20:56:02.099Z,4.50
2023-04-15T21:02:23.660Z,6.22
2023-04-15T21:05:29.030Z,4.93
2023-04-15T21:08:31.560Z,4.63
2023-04-15T21:11:53.142Z,4.88
2023-04-15T21:15:03.711Z,4.97
2023-04-15T21:18:30.561Z,5.05
2023-04-15T21:21:35.488Z,4.93
2023-04-15T21:24:37.953Z,5.05
2023-04-15T21:27:39.596Z,5.60
2023-04-15T21:30:42.985Z,5.50
2023-04-15T21:33:46.362Z,5.72
2023-04-15T21:36:47.992Z,7.43
2023-04-15T21:39:49.684Z,7.05
2023-04-15T21:42:52.611Z,8.07
2023-04-15T21:46:22.385Z,6.28
2023-04-15T21:49:20.285Z,6.57
2023-04-15T21:52:24.390Z,6.20
2023-04-15T21:55:25.966Z,6.15
2023-04-15T21:58:30.447Z,7.55
2023-04-15T22:01:32.013Z,6.75
2023-04-15T22:04:33.546Z,6.85
2023-04-15T22:07:36.466Z,6.15
2023-04-15T22:10:38.945Z,7.13
2023-04-15T22:13:40.915Z,6.72
2023-04-15T22:20:03.761Z,6.10
2023-04-15T22:23:08.386Z,6.13
2023-04-15T22:26:10.103Z,6.80
2023-04-15T22:29:14.851Z,6.65
2023-04-15T22:32:17.094Z,7.10
2023-04-15T22:35:21.665Z,7.30
2023-04-15T22:38:24.761Z,8.40
2023-04-15T22:41:26.411Z,7.65
2023-04-15T22:44:27.938Z,7.00
2023-04-15T22:47:29.521Z,6.97
2023-04-15T22:50:37.945Z,7.00
2023-04-15T22:53:39.542Z,8.20
2023-04-15T22:56:41.053Z,8.05
2023-04-15T22:59:42.605Z,8.43
2023-04-15T23:02:44.189Z,8.25
2023-04-15T23:05:46.147Z,9.40
2023-04-15T23:08:47.881Z,8.55
2023-04-15T23:11:49.547Z,8.80
2023-04-15T23:14:51.144Z,9.27
2023-04-15T23:17:58.435Z,9.73
2023-04-15T23:21:00.048Z,9.82
2023-04-15T23:24:01.626Z,9.40
2023-04-15T23:27:06.301Z,10.05
2023-04-15T23:30:08.268Z,9.55
2023-04-15T23:33:12.822Z,10.80
2023-04-15T23:36:14.383Z,10.27
2023-04-15T23:39:18.279Z,11.02
2023-04-15T23:42:19.812Z,10.65
2023-04-15T23:45:21.374Z,10.93
2023-04-15T23:48:23.716Z,11.45
2023-04-15T23:51:34.239Z,10.35
2023-04-15T23:54:37.213Z,10.75
2023-04-15T23:57:41.499Z,10.05
